createdAt,value
2023-01-17T00:01:43.243Z,99.90
2023-01-17T00:04:31.785Z,99.90
2023-01-17T00:07:16.781Z,99.90
2023-01-17T00:09:56.951Z,99.90
2023-01-17T00:12:24.924Z,99.90
2023-01-17T00:14:51.878Z,99.90
2023-01-17T00:17:18.350Z,99.90
2023-01-17T00:20:03.587Z,99.90
2023-01-17T00:22:49.855Z,99.90
2023-01-17T00:25:36.324Z,99.90
2023-01-17T00:28:03.425Z,99.90
2023-01-17T00:30:29.921Z,99.90
2023-01-17T00:32:56.408Z,99.90
2023-01-17T00:35:23.830Z,99.90
2023-01-17T00:40:41.328Z,99.90
2023-01-17T00:43:26.973Z,99.90
2023-01-17T00:46:12.136Z,99.90
2023-01-17T00:48:57.244Z,99.90
2023-01-17T00:51:42.598Z,99.90
2023-01-17T00:54:28.261Z,99.90
2023-01-17T00:57:13.694Z,99.90
2023-01-17T00:59:58.732Z,99.90
2023-01-17T01:02:43.857Z,99.90
2023-01-17T01:05:29.477Z,99.90
2023-01-17T01:08:15.087Z,99.90
2023-01-17T01:11:01.146Z,99.90
2023-01-17T01:13:47.433Z,99.90
2023-01-17T01:16:32.736Z,99.90
2023-01-17T01:19:18.083Z,99.90
2023-01-17T01:22:03.144Z,99.90
2023-01-17T01:24:48.183Z,99.90
2023-01-17T01:27:33.561Z,99.90
2023-01-17T01:30:18.826Z,99.90
2023-01-17T01:33:03.910Z,99.90
2023-01-17T01:35:30.360Z,99.90
2023-01-17T01:37:57.495Z,99.90
2023-01-17T01:40:23.951Z,99.90
2023-01-17T01:42:56.768Z,99.90
2023-01-17T01:45:24.587Z,99.90
2023-01-17T01:47:53.705Z,99.90
2023-01-17T01:50:21.618Z,99.90
2023-01-17T01:52:50.199Z,99.90
2023-01-17T01:55:22.800Z,99.90
2023-01-17T01:57:51.005Z,99.90
2023-01-17T02:00:19.176Z,99.90
2023-01-17T02:02:48.008Z,99.90
2023-01-17T02:05:15.517Z,99.90
2023-01-17T02:07:51.357Z,99.90
2023-01-17T02:10:17.881Z,99.90
2023-01-17T02:12:44.634Z,99.90
2023-01-17T02:15:11.415Z,99.90
2023-01-17T02:17:58.150Z,99.90
2023-01-17T02:20:33.572Z,99.90
2023-01-17T02:23:00.060Z,99.90
2023-01-17T02:25:34.551Z,99.90
2023-01-17T02:28:12.251Z,99.90
2023-01-17T02:30:45.906Z,99.90
2023-01-17T02:33:18.513Z,99.90
2023-01-17T02:36:06.511Z,99.90
2023-01-17T02:38:45.363Z,99.90
2023-01-17T02:41:15.130Z,99.90
2023-01-17T02:43:41.778Z,99.90
2023-01-17T02:46:09.772Z,99.90
2023-01-17T02:48:37.451Z,99.90
2023-01-17T02:51:03.850Z,99.90
2023-01-17T02:53:43.470Z,99.90
2023-01-17T02:56:32.816Z,99.90
2023-01-17T02:59:15.831Z,99.90
2023-01-17T03:01:57.973Z,99.90
2023-01-17T03:04:26.928Z,99.90
2023-01-17T03:06:58.683Z,99.90
2023-01-17T03:09:25.931Z,99.90
2023-01-17T03:11:52.538Z,99.90
2023-01-17T03:14:19.126Z,99.90
2023-01-17T03:16:45.793Z,99.90
2023-01-17T03:19:14.544Z,99.90
2023-01-17T03:21:41.077Z,99.90
2023-01-17T03:24:07.955Z,99.90
2023-01-17T03:26:34.531Z,99.90
2023-01-17T03:29:01.042Z,99.90
2023-01-17T03:31:27.549Z,99.90
2023-01-17T03:33:54.048Z,99.90
2023-01-17T03:36:20.551Z,99.90
2023-01-17T03:38:47.101Z,99.90
2023-01-17T03:41:13.584Z,99.90
2023-01-17T03:43:40.080Z,99.90
2023-01-17T03:46:07.607Z,99.90
2023-01-17T03:48:34.198Z,99.90
2023-01-17T03:51:00.697Z,99.90
2023-01-17T03:53:27.263Z,99.90
2023-01-17T03:55:53.791Z,99.90
2023-01-17T03:58:20.255Z,99.90
2023-01-17T04:00:46.955Z,99.90
2023-01-17T04:03:13.612Z,99.90
2023-01-17T04:05:40.310Z,99.90
2023-01-17T04:08:07.321Z,99.90
2023-01-17T04:10:33.900Z,99.90
2023-01-17T04:13:00.465Z,99.90
2023-01-17T04:15:26.982Z,99.90
2023-01-17T04:17:53.513Z,99.90
2023-01-17T04:20:34.367Z,99.90
2023-01-17T04:23:00.870Z,99.90
2023-01-17T04:25:29.769Z,99.90
2023-01-17T04:27:56.455Z,99.90
2023-01-17T04:30:23.320Z,99.90
2023-01-17T04:32:50.206Z,99.90
2023-01-17T04:35:16.810Z,99.90
2023-01-17T04:37:43.776Z,99.90
2023-01-17T04:40:10.899Z,99.90
2023-01-17T04:42:37.534Z,99.90
2023-01-17T04:45:04.326Z,99.90
2023-01-17T04:47:30.845Z,99.90
2023-01-17T04:49:57.355Z,99.90
2023-01-17T04:52:25.490Z,99.90
2023-01-17T04:54:52.794Z,99.90
2023-01-17T04:57:19.805Z,99.90
2023-01-17T04:59:46.788Z,99.90
2023-01-17T05:02:13.544Z,99.90
2023-01-17T05:04:40.350Z,99.90
2023-01-17T05:07:06.970Z,99.90
2023-01-17T05:09:33.477Z,99.90
2023-01-17T05:12:00.014Z,99.90
2023-01-17T05:14:26.927Z,99.90
2023-01-17T05:16:54.173Z,99.90
2023-01-17T05:19:21.178Z,99.90
2023-01-17T05:21:47.725Z,99.90
2023-01-17T05:24:14.311Z,99.90
2023-01-17T05:26:42.930Z,99.90
2023-01-17T05:29:09.697Z,99.90
2023-01-17T05:31:36.618Z,99.90
2023-01-17T05:34:03.558Z,99.90
2023-01-17T05:36:30.247Z,99.90
2023-01-17T05:38:56.845Z,99.90
2023-01-17T05:41:23.397Z,99.90
2023-01-17T05:43:50.001Z,99.90
2023-01-17T05:46:17.938Z,99.90
2023-01-17T05:48:44.475Z,99.90
2023-01-17T05:51:11.020Z,99.90
2023-01-17T05:53:37.575Z,99.90
2023-01-17T05:56:04.143Z,99.90
2023-01-17T05:58:30.653Z,99.90
2023-01-17T06:00:57.213Z,99.90
2023-01-17T06:03:23.903Z,99.90
2023-01-17T06:05:50.464Z,99.90
2023-01-17T06:08:17.033Z,99.90
2023-01-17T06:10:43.577Z,99.90
2023-01-17T06:13:15.148Z,99.90
2023-01-17T06:15:41.852Z,99.90
2023-01-17T06:18:09.715Z,99.90
2023-01-17T06:20:36.597Z,99.90
2023-01-17T06:23:07.363Z,99.90
2023-01-17T06:25:37.550Z,99.90
2023-01-17T06:28:04.529Z,99.90
2023-01-17T06:30:31.003Z,99.90
2023-01-17T06:32:57.467Z,99.90
2023-01-17T06:35:23.997Z,99.90
2023-01-17T06:37:51.694Z,99.90
2023-01-17T06:40:18.624Z,99.90
2023-01-17T06:42:45.156Z,99.90
2023-01-17T06:45:11.634Z,99.90
2023-01-17T06:47:41.443Z,99.90
2023-01-17T06:50:09.001Z,99.90
2023-01-17T06:52:35.498Z,99.90
2023-01-17T06:55:02.247Z,99.90
2023-01-17T06:57:28.767Z,99.90
2023-01-17T06:59:55.298Z,99.90
2023-01-17T07:02:21.805Z,99.90
2023-01-17T07:04:48.321Z,99.90
2023-01-17T07:07:14.886Z,99.90
2023-01-17T07:09:41.560Z,99.90
2023-01-17T07:12:08.071Z,99.90
2023-01-17T07:14:34.539Z,99.90
2023-01-17T07:17:01.068Z,99.90
2023-01-17T07:19:27.552Z,99.90
2023-01-17T07:21:54.266Z,99.90
2023-01-17T07:24:21.225Z,99.90
2023-01-17T07:26:48.846Z,99.90
2023-01-17T07:29:15.435Z,99.90
2023-01-17T07:31:42.066Z,99.90
2023-01-17T07:34:08.623Z,99.90
2023-01-17T07:36:35.249Z,99.90
2023-01-17T07:39:02.005Z,99.90
2023-01-17T07:41:30.739Z,99.90
2023-01-17T07:43:57.157Z,99.90
2023-01-17T07:46:23.769Z,99.90
2023-01-17T07:48:50.354Z,99.90
2023-01-17T07:51:17.997Z,99.90
2023-01-17T07:53:44.471Z,99.90
2023-01-17T07:56:11.000Z,99.90
2023-01-17T07:58:37.496Z,99.90
2023-01-17T08:01:08.340Z,99.90
2023-01-17T08:03:39.656Z,99.90
2023-01-17T08:06:07.119Z,99.90
2023-01-17T08:08:33.639Z,99.90
2023-01-17T08:11:00.112Z,99.90
2023-01-17T08:13:28.450Z,99.90
2023-01-17T08:15:56.392Z,99.90
2023-01-17T08:18:22.980Z,99.90
2023-01-17T08:20:49.512Z,99.90
2023-01-17T08:23:16.138Z,99.90
2023-01-17T08:25:42.660Z,99.90
2023-01-17T08:28:09.140Z,99.90
2023-01-17T08:30:35.669Z,99.90
2023-01-17T08:33:02.152Z,99.90
2023-01-17T08:35:28.868Z,99.90
2023-01-17T08:37:56.244Z,99.90
2023-01-17T08:40:23.271Z,99.90
2023-01-17T08:42:57.221Z,99.90
2023-01-17T08:45:24.149Z,99.90
2023-01-17T08:47:50.896Z,99.90
2023-01-17T08:50:20.681Z,99.90
2023-01-17T08:52:48.408Z,99.90
2023-01-17T08:55:15.059Z,99.90
2023-01-17T08:57:41.570Z,95.70
2023-01-17T09:00:10.035Z,91.70
2023-01-17T09:02:36.733Z,86.10
2023-01-17T09:05:03.315Z,80.20
2023-01-17T09:07:29.810Z,75.20
2023-01-17T09:09:56.946Z,70.90
2023-01-17T09:12:24.109Z,68.00
2023-01-17T09:14:50.642Z,67.30
2023-01-17T09:17:17.233Z,65.60
2023-01-17T09:19:47.587Z,63.60
2023-01-17T09:22:14.653Z,62.70
2023-01-17T09:24:41.992Z,62.50
2023-01-17T09:27:08.498Z,61.50
2023-01-17T09:29:35.285Z,60.50
2023-01-17T09:32:02.026Z,59.00
2023-01-17T09:34:28.448Z,58.40
2023-01-17T09:36:56.882Z,58.40
2023-01-17T09:39:23.444Z,58.00
2023-01-17T09:42:08.532Z,57.80
2023-01-17T09:44:35.015Z,57.40
2023-01-17T09:47:07.465Z,56.50
2023-01-17T09:49:37.968Z,55.10
2023-01-17T09:52:05.833Z,55.10
2023-01-17T09:54:37.813Z,54.60
2023-01-17T09:57:07.227Z,53.50
2023-01-17T09:59:39.126Z,52.10
2023-01-17T10:02:15.987Z,52.10
2023-01-17T10:05:03.772Z,51.20
2023-01-17T10:07:30.306Z,51.20
2023-01-17T10:10:15.542Z,50.80
2023-01-17T10:12:48.389Z,51.00
2023-01-17T10:15:14.910Z,49.30
2023-01-17T10:17:41.502Z,49.30
2023-01-17T10:20:26.455Z,49.90
2023-01-17T10:23:03.731Z,48.40
2023-01-17T10:25:38.857Z,48.30
2023-01-17T10:28:11.852Z,45.50
2023-01-17T10:30:51.765Z,46.00
2023-01-17T10:33:22.072Z,45.50
2023-01-17T10:35:54.355Z,46.30
2023-01-17T10:38:23.865Z,45.40
2023-01-17T10:40:54.758Z,44.40
2023-01-17T10:43:31.372Z,43.40
2023-01-17T10:45:57.963Z,43.70
2023-01-17T10:48:38.784Z,43.60
2023-01-17T10:51:12.479Z,44.70
2023-01-17T10:53:44.614Z,44.60
2023-01-17T10:56:14.096Z,44.90
2023-01-17T10:58:40.633Z,44.10
2023-01-17T11:01:12.697Z,44.00
2023-01-17T11:03:39.739Z,45.30
2023-01-17T11:06:19.521Z,45.30
2023-01-17T11:08:56.449Z,45.60
2023-01-17T11:11:24.322Z,45.10
2023-01-17T11:13:51.978Z,45.30
2023-01-17T11:16:23.088Z,45.30
2023-01-17T11:19:04.717Z,46.10
2023-01-17T11:21:31.967Z,46.60
2023-01-17T11:24:08.397Z,48.60
2023-01-17T11:26:35.689Z,46.70
2023-01-17T11:29:14.468Z,46.60
2023-01-17T11:31:40.993Z,46.30
2023-01-17T11:34:17.847Z,45.10
2023-01-17T11:36:44.729Z,44.80
2023-01-17T11:39:17.400Z,45.70
2023-01-17T11:41:44.811Z,47.80
2023-01-17T11:44:20.830Z,49.90
2023-01-17T11:46:47.399Z,52.10
2023-01-17T11:49:24.930Z,54.40
2023-01-17T11:51:56.096Z,57.00
2023-01-17T11:54:39.434Z,59.20
2023-01-17T11:57:24.904Z,60.50
2023-01-17T11:59:58.025Z,59.70
2023-01-17T12:02:31.601Z,61.60
2023-01-17T12:05:18.253Z,61.40
2023-01-17T12:07:59.611Z,62.00
2023-01-17T12:10:35.913Z,63.30
2023-01-17T12:13:47.562Z,64.30
2023-01-17T12:16:29.101Z,64.80
2023-01-17T12:18:59.690Z,65.30
2023-01-17T12:21:34.242Z,63.50
2023-01-17T12:24:19.690Z,64.00
2023-01-17T12:27:00.348Z,65.70
2023-01-17T12:29:38.649Z,65.90
2023-01-17T12:32:13.886Z,64.60
2023-01-17T12:34:43.743Z,64.90
2023-01-17T12:37:13.026Z,66.50
2023-01-17T12:39:41.986Z,65.90
2023-01-17T12:42:21.217Z,67.80
2023-01-17T12:44:58.121Z,67.90
2023-01-17T12:47:25.080Z,68.40
2023-01-17T12:49:58.237Z,67.70
2023-01-17T12:52:32.993Z,66.90
2023-01-17T12:55:02.066Z,69.60
2023-01-17T12:57:31.790Z,69.80
2023-01-17T13:00:02.199Z,70.00
2023-01-17T13:02:31.127Z,70.90
2023-01-17T13:05:00.963Z,70.10
2023-01-17T13:07:39.084Z,68.80
2023-01-17T13:10:12.135Z,69.40
2023-01-17T13:12:39.142Z,70.60
2023-01-17T13:15:35.495Z,72.00
2023-01-17T13:18:07.114Z,71.20
2023-01-17T13:20:42.145Z,70.00
2023-01-17T13:23:15.128Z,69.80
2023-01-17T13:25:46.226Z,70.70
2023-01-17T13:28:28.007Z,71.20
2023-01-17T13:30:57.424Z,72.20
2023-01-17T13:33:26.949Z,71.60
2023-01-17T13:36:00.666Z,70.60
2023-01-17T13:38:36.581Z,70.20
2023-01-17T13:41:05.881Z,68.70
2023-01-17T13:43:40.353Z,70.10
2023-01-17T13:46:07.083Z,70.60
2023-01-17T13:48:37.083Z,72.70
2023-01-17T13:51:10.056Z,71.60
2023-01-17T13:53:39.508Z,70.70
2023-01-17T13:56:12.179Z,74.40
2023-01-17T13:58:45.187Z,74.00
2023-01-17T14:01:11.808Z,75.70
2023-01-17T14:03:53.657Z,75.50
2023-01-17T14:06:35.549Z,76.10
2023-01-17T14:09:03.783Z,77.00
2023-01-17T14:11:34.573Z,77.20
2023-01-17T14:14:19.785Z,76.80
2023-01-17T14:16:46.468Z,76.60
2023-01-17T14:19:25.324Z,77.80
2023-01-17T14:22:11.795Z,79.80
2023-01-17T14:24:55.918Z,80.50
2023-01-17T14:27:27.253Z,80.40
2023-01-17T14:29:58.883Z,79.50
2023-01-17T14:32:33.272Z,82.40
2023-01-17T14:34:59.815Z,82.50
2023-01-17T14:37:30.002Z,84.00
2023-01-17T14:39:56.461Z,83.90
2023-01-17T14:42:24.098Z,86.60
2023-01-17T14:44:52.050Z,87.00
2023-01-17T14:47:18.808Z,90.30
2023-01-17T14:49:45.272Z,91.30
2023-01-17T14:52:16.083Z,91.50
2023-01-17T14:54:49.385Z,93.00
2023-01-17T14:57:29.009Z,93.70
2023-01-17T15:00:21.809Z,95.80
2023-01-17T15:02:49.062Z,96.90
2023-01-17T15:05:16.705Z,96.10
2023-01-17T15:07:44.239Z,97.20
2023-01-17T15:10:12.789Z,97.00
2023-01-17T15:12:39.374Z,97.40
2023-01-17T15:15:25.445Z,97.70
2023-01-17T15:17:53.786Z,98.00
2023-01-17T15:20:20.524Z,99.40
2023-01-17T15:22:47.017Z,99.90
2023-01-17T15:25:16.294Z,99.90
2023-01-17T15:27:42.873Z,99.90
2023-01-17T15:30:11.440Z,99.90
2023-01-17T15:32:38.487Z,99.90
2023-01-17T15:35:07.801Z,99.90
2023-01-17T15:37:39.946Z,99.90
2023-01-17T15:40:15.862Z,99.90
2023-01-17T15:42:42.746Z,99.90
2023-01-17T15:45:16.064Z,99.90
2023-01-17T15:47:42.795Z,99.90
2023-01-17T15:50:30.791Z,99.90
2023-01-17T15:52:59.065Z,99.90
2023-01-17T15:55:38.731Z,99.90
2023-01-17T15:58:20.954Z,99.90
2023-01-17T16:00:47.624Z,99.90
2023-01-17T16:03:20.749Z,99.90
2023-01-17T16:05:48.186Z,99.90
2023-01-17T16:08:28.738Z,99.90
2023-01-17T16:11:01.877Z,99.90
2023-01-17T16:13:33.094Z,99.90
2023-01-17T16:16:12.966Z,99.90
2023-01-17T16:18:40.599Z,99.90
2023-01-17T16:21:27.405Z,99.90
2023-01-17T16:23:54.277Z,99.90
2023-01-17T16:26:21.045Z,99.90
2023-01-17T16:28:48.031Z,99.90
2023-01-17T16:31:15.119Z,99.90
2023-01-17T16:33:45.725Z,99.90
2023-01-17T16:36:14.725Z,99.90
2023-01-17T16:38:42.078Z,99.90
2023-01-17T16:41:08.797Z,99.90
2023-01-17T16:43:35.360Z,99.90
2023-01-17T16:46:01.851Z,99.90
2023-01-17T16:48:28.304Z,99.90
2023-01-17T16:50:54.872Z,99.90
2023-01-17T16:53:24.701Z,99.90
2023-01-17T16:55:52.426Z,99.90
2023-01-17T16:58:20.498Z,99.90
2023-01-17T17:00:47.496Z,99.90
2023-01-17T17:03:15.624Z,99.90
2023-01-17T17:05:43.604Z,99.90
2023-01-17T17:08:10.159Z,99.90
2023-01-17T17:10:36.706Z,99.90
2023-01-17T17:13:03.201Z,99.90
2023-01-17T17:15:29.818Z,99.90
2023-01-17T17:17:56.402Z,99.90
2023-01-17T17:20:25.072Z,99.90
2023-01-17T17:22:51.843Z,99.90
2023-01-17T17:25:18.843Z,99.90
2023-01-17T17:27:45.318Z,99.90
2023-01-17T17:30:12.497Z,99.90
2023-01-17T17:32:39.021Z,99.90
2023-01-17T17:35:06.028Z,99.90
2023-01-17T17:37:32.581Z,99.90
2023-01-17T17:39:59.031Z,99.90
2023-01-17T17:42:25.721Z,99.90
2023-01-17T17:44:52.208Z,99.90
2023-01-17T17:47:18.778Z,99.90
2023-01-17T17:49:45.325Z,99.90
2023-01-17T17:52:11.911Z,99.90
2023-01-17T17:54:38.418Z,99.90
2023-01-17T17:57:05.382Z,99.90
2023-01-17T17:59:31.879Z,99.90
2023-01-17T18:01:59.713Z,99.90
2023-01-17T18:04:27.027Z,99.90
2023-01-17T18:06:59.486Z,99.90
2023-01-17T18:09:25.970Z,99.90
2023-01-17T18:11:52.427Z,99.90
2023-01-17T18:14:20.994Z,99.90
2023-01-17T18:16:47.883Z,99.90
2023-01-17T18:19:18.783Z,99.90
2023-01-17T18:21:45.525Z,99.90
2023-01-17T18:24:13.397Z,99.90
2023-01-17T18:26:41.585Z,99.90
2023-01-17T18:29:09.520Z,99.90
2023-01-17T18:31:36.596Z,99.90
2023-01-17T18:34:04.413Z,99.90
2023-01-17T18:36:31.007Z,99.90
2023-01-17T18:38:57.543Z,99.90
2023-01-17T18:41:25.563Z,99.90
2023-01-17T18:43:52.205Z,99.90
2023-01-17T18:46:19.482Z,99.90
2023-01-17T18:48:46.490Z,99.90
2023-01-17T18:51:14.302Z,99.90
2023-01-17T18:53:41.546Z,99.90
2023-01-17T18:56:09.049Z,99.90
2023-01-17T18:58:37.873Z,99.90
2023-01-17T19:01:09.078Z,99.90
2023-01-17T19:03:35.920Z,99.90
2023-01-17T19:06:03.433Z,99.90
2023-01-17T19:08:31.010Z,99.90
2023-01-17T19:10:57.663Z,99.90
2023-01-17T19:13:24.370Z,99.90
2023-01-17T19:15:50.984Z,99.90
2023-01-17T19:18:17.491Z,99.90
2023-01-17T19:20:44.272Z,99.90
2023-01-17T19:23:10.754Z,99.90
2023-01-17T19:25:37.207Z,99.90
2023-01-17T19:28:04.255Z,99.90
2023-01-17T19:30:32.380Z,99.90
2023-01-17T19:32:58.940Z,99.90
2023-01-17T19:35:25.623Z,99.90
2023-01-17T19:37:53.198Z,99.90
2023-01-17T19:40:20.663Z,99.90
2023-01-17T19:42:48.068Z,99.90
2023-01-17T19:45:14.707Z,99.90
2023-01-17T19:47:41.201Z,99.90
2023-01-17T19:50:08.409Z,99.90
2023-01-17T19:52:39.356Z,99.90
2023-01-17T19:55:09.799Z,99.90
2023-01-17T19:57:40.501Z,99.90
2023-01-17T20:00:12.729Z,99.90
2023-01-17T20:02:39.574Z,99.90
2023-01-17T20:05:06.572Z,99.90
2023-01-17T20:07:33.624Z,99.90
2023-01-17T20:10:00.250Z,99.90
2023-01-17T20:12:26.781Z,99.90
2023-01-17T20:14:54.254Z,99.90
2023-01-17T20:17:21.085Z,99.90
2023-01-17T20:19:47.554Z,99.90
2023-01-17T20:22:14.045Z,99.90
2023-01-17T20:24:40.521Z,99.90
2023-01-17T20:27:07.450Z,99.90
2023-01-17T20:29:33.977Z,99.90
2023-01-17T20:32:00.588Z,99.90
2023-01-17T20:34:27.307Z,99.90
2023-01-17T20:36:55.090Z,99.90
2023-01-17T20:39:21.598Z,99.90
2023-01-17T20:41:49.865Z,99.90
2023-01-17T20:44:16.473Z,99.90
2023-01-17T20:46:43.225Z,99.90
2023-01-17T20:49:15.171Z,99.90
2023-01-17T20:51:43.928Z,99.90
2023-01-17T20:54:12.894Z,99.90
2023-01-17T20:56:39.714Z,99.90
2023-01-17T20:59:12.171Z,99.90
2023-01-17T21:01:38.862Z,99.90
2023-01-17T21:04:09.961Z,99.90
2023-01-17T21:06:38.521Z,99.90
2023-01-17T21:09:07.069Z,99.90
2023-01-17T21:11:34.190Z,99.90
2023-01-17T21:14:01.555Z,99.90
2023-01-17T21:16:28.176Z,99.90
2023-01-17T21:18:54.977Z,99.90
2023-01-17T21:21:22.991Z,99.90
2023-01-17T21:23:50.176Z,99.90
2023-01-17T21:26:17.520Z,99.90
2023-01-17T21:28:45.635Z,99.90
2023-01-17T21:31:23.270Z,99.90
2023-01-17T21:34:00.317Z,99.90
2023-01-17T21:36:27.965Z,99.90
2023-01-17T21:38:56.869Z,99.90
2023-01-17T21:41:25.547Z,99.90
2023-01-17T21:43:56.030Z,99.90
2023-01-17T21:46:23.055Z,99.90
2023-01-17T21:48:49.720Z,99.90
2023-01-17T21:51:16.499Z,99.90
2023-01-17T21:53:43.079Z,99.90
2023-01-17T21:56:30.241Z,99.90
2023-01-17T21:58:57.493Z,99.90
2023-01-17T22:01:25.917Z,99.90
2023-01-17T22:03:56.511Z,99.90
2023-01-17T22:06:25.427Z,99.90
2023-01-17T22:08:52.074Z,99.90
2023-01-17T22:11:19.541Z,99.90
2023-01-17T22:13:46.577Z,99.90
2023-01-17T22:16:15.493Z,99.90
2023-01-17T22:18:42.739Z,99.90
2023-01-17T22:21:13.384Z,99.90
2023-01-17T22:23:40.556Z,99.90
2023-01-17T22:26:09.294Z,99.90
2023-01-17T22:28:36.302Z,99.90
2023-01-17T22:31:09.384Z,99.90
2023-01-17T22:33:36.934Z,99.90
2023-01-17T22:36:04.316Z,99.90
2023-01-17T22:38:31.460Z,99.90
2023-01-17T22:41:06.820Z,99.90
2023-01-17T22:43:37.182Z,99.90
2023-01-17T22:46:04.841Z,99.90
2023-01-17T22:48:32.208Z,99.90
2023-01-17T22:51:02.123Z,99.90
2023-01-17T22:53:30.600Z,99.90
2023-01-17T22:56:07.514Z,99.90
2023-01-17T22:58:34.530Z,99.90
2023-01-17T23:01:05.436Z,99.90
2023-01-17T23:03:32.625Z,99.90
2023-01-17T23:06:16.054Z,99.90
2023-01-17T23:08:43.556Z,99.90
2023-01-17T23:11:36.353Z,99.90
2023-01-17T23:14:02.814Z,99.90
2023-01-17T23:16:47.880Z,99.90
2023-01-17T23:19:23.323Z,99.90
2023-01-17T23:22:09.133Z,99.90
2023-01-17T23:24:39.385Z,99.90
2023-01-17T23:27:24.784Z,99.90
2023-01-17T23:29:51.327Z,99.90
2023-01-17T23:32:17.821Z,99.90
2023-01-17T23:34:44.239Z,99.90
2023-01-17T23:37:10.823Z,99.90
2023-01-17T23:39:37.320Z,99.90
2023-01-17T23:42:22.760Z,99.90
2023-01-17T23:44:49.309Z,99.90
2023-01-17T23:47:15.756Z,99.90
2023-01-17T23:49:43.411Z,99.90
2023-01-17T23:52:09.975Z,99.90
2023-01-17T23:54:38.471Z,99.90
2023-01-17T23:57:04.978Z,99.90
2023-01-17T23:59:31.969Z,99.90
